sensor_id;sensor_type;location;lat;lon;timestamp;P1;durP1;ratioP1;P2;durP2;ratioP2
49934;SDS011;39898;41.762;26.200;2023-03-05T00:02:19;89.47;;;42.08;;
49934;SDS011;39898;41.762;26.200;2023-03-05T00:04:46;88.55;;;41.20;;
49934;SDS011;39898;41.762;26.200;2023-03-05T00:07:12;88.97;;;41.60;;
49934;SDS011;39898;41.762;26.200;2023-03-05T00:09:39;94.50;;;40.65;;
49934;SDS011;39898;41.762;26.200;2023-03-05T00:12:06;62.78;;;29.77;;
49934;SDS011;39898;41.762;26.200;2023-03-05T00:14:33;51.67;;;22.55;;
49934;SDS011;39898;41.762;26.200;2023-03-05T00:16:59;40.17;;;21.00;;
49934;SDS011;39898;41.762;26.200;2023-03-05T00:19:26;45.38;;;22.60;;
49934;SDS011;39898;41.762;26.200;2023-03-05T00:21:52;47.45;;;22.90;;
49934;SDS011;39898;41.762;26.200;2023-03-05T00:24:19;52.67;;;23.30;;
49934;SDS011;39898;41.762;26.200;2023-03-05T00:26:45;54.28;;;23.98;;
49934;SDS011;39898;41.762;26.200;2023-03-05T00:29:16;59.00;;;24.50;;
49934;SDS011;39898;41.762;26.200;2023-03-05T00:31:47;67.60;;;28.45;;
49934;SDS011;39898;41.762;26.200;2023-03-05T00:34:14;61.55;;;26.02;;
49934;SDS011;39898;41.762;26.200;2023-03-05T00:36:42;113.00;;;43.45;;
49934;SDS011;39898;41.762;26.200;2023-03-05T00:39:10;79.07;;;34.15;;
49934;SDS011;39898;41.762;26.200;2023-03-05T00:41:37;58.85;;;27.08;;
49934;SDS011;39898;41.762;26.200;2023-03-05T00:44:03;59.25;;;25.52;;
49934;SDS011;39898;41.762;26.200;2023-03-05T00:46:30;62.45;;;29.88;;
49934;SDS011;39898;41.762;26.200;2023-03-05T00:48:57;57.60;;;26.85;;
49934;SDS011;39898;41.762;26.200;2023-03-05T00:51:24;70.60;;;31.13;;
49934;SDS011;39898;41.762;26.200;2023-03-05T00:53:51;74.53;;;35.22;;
49934;SDS011;39898;41.762;26.200;2023-03-05T00:56:17;82.30;;;33.85;;
49934;SDS011;39898;41.762;26.200;2023-03-05T00:58:44;75.85;;;32.33;;
49934;SDS011;39898;41.762;26.200;2023-03-05T01:01:10;69.82;;;29.88;;
49934;SDS011;39898;41.762;26.200;2023-03-05T01:03:37;80.90;;;37.70;;
49934;SDS011;39898;41.762;26.200;2023-03-05T01:06:05;103.28;;;48.45;;
49934;SDS011;39898;41.762;26.200;2023-03-05T01:08:32;80.25;;;36.58;;
49934;SDS011;39898;41.762;26.200;2023-03-05T01:10:59;79.78;;;36.10;;
49934;SDS011;39898;41.762;26.200;2023-03-05T01:13:26;413.55;;;180.88;;
49934;SDS011;39898;41.762;26.200;2023-03-05T01:15:52;67.05;;;29.20;;
49934;SDS011;39898;41.762;26.200;2023-03-05T01:18:19;76.93;;;26.58;;
49934;SDS011;39898;41.762;26.200;2023-03-05T01:20:46;65.50;;;28.33;;
49934;SDS011;39898;41.762;26.200;2023-03-05T01:23:12;152.88;;;31.40;;
49934;SDS011;39898;41.762;26.200;2023-03-05T01:25:39;90.28;;;27.75;;
49934;SDS011;39898;41.762;26.200;2023-03-05T01:28:06;75.50;;;28.15;;
49934;SDS011;39898;41.762;26.200;2023-03-05T01:30:32;65.70;;;28.10;;
49934;SDS011;39898;41.762;26.200;2023-03-05T01:32:59;60.80;;;28.33;;
49934;SDS011;39898;41.762;26.200;2023-03-05T01:35:26;61.28;;;25.65;;
49934;SDS011;39898;41.762;26.200;2023-03-05T01:37:53;59.13;;;27.70;;
49934;SDS011;39898;41.762;26.200;2023-03-05T01:40:23;60.35;;;24.83;;
49934;SDS011;39898;41.762;26.200;2023-03-05T01:43:07;58.58;;;26.02;;
49934;SDS011;39898;41.762;26.200;2023-03-05T01:45:38;215.82;;;26.20;;
49934;SDS011;39898;41.762;26.200;2023-03-05T01:48:24;91.80;;;25.70;;
49934;SDS011;39898;41.762;26.200;2023-03-05T01:50:51;64.28;;;27.60;;
49934;SDS011;39898;41.762;26.200;2023-03-05T01:53:17;61.65;;;33.53;;
49934;SDS011;39898;41.762;26.200;2023-03-05T01:55:44;66.25;;;32.97;;
49934;SDS011;39898;41.762;26.200;2023-03-05T01:58:10;63.03;;;32.75;;
49934;SDS011;39898;41.762;26.200;2023-03-05T02:00:40;62.00;;;29.70;;
49934;SDS011;39898;41.762;26.200;2023-03-05T02:03:08;60.08;;;29.17;;
49934;SDS011;39898;41.762;26.200;2023-03-05T02:05:36;55.83;;;26.95;;
49934;SDS011;39898;41.762;26.200;2023-03-05T02:08:08;60.58;;;27.08;;
49934;SDS011;39898;41.762;26.200;2023-03-05T02:10:35;55.63;;;26.42;;
49934;SDS011;39898;41.762;26.200;2023-03-05T02:13:07;58.80;;;27.63;;
49934;SDS011;39898;41.762;26.200;2023-03-05T02:15:34;69.78;;;30.77;;
49934;SDS011;39898;41.762;26.200;2023-03-05T02:18:01;59.58;;;28.42;;
49934;SDS011;39898;41.762;26.200;2023-03-05T02:20:29;65.20;;;30.00;;
49934;SDS011;39898;41.762;26.200;2023-03-05T02:22:55;63.47;;;28.08;;
49934;SDS011;39898;41.762;26.200;2023-03-05T02:25:24;54.95;;;28.48;;
49934;SDS011;39898;41.762;26.200;2023-03-05T02:28:01;69.85;;;28.63;;
49934;SDS011;39898;41.762;26.200;2023-03-05T02:30:29;58.33;;;26.50;;
49934;SDS011;39898;41.762;26.200;2023-03-05T02:32:56;47.03;;;22.30;;
49934;SDS011;39898;41.762;26.200;2023-03-05T02:35:23;44.90;;;21.80;;
49934;SDS011;39898;41.762;26.200;2023-03-05T02:37:50;93.25;;;38.30;;
49934;SDS011;39898;41.762;26.200;2023-03-05T02:40:16;51.78;;;23.80;;
49934;SDS011;39898;41.762;26.200;2023-03-05T02:42:43;42.03;;;21.13;;
49934;SDS011;39898;41.762;26.200;2023-03-05T02:45:10;46.13;;;22.02;;
49934;SDS011;39898;41.762;26.200;2023-03-05T02:47:37;40.85;;;20.80;;
49934;SDS011;39898;41.762;26.200;2023-03-05T02:50:04;47.10;;;22.45;;
49934;SDS011;39898;41.762;26.200;2023-03-05T02:52:31;48.13;;;24.13;;
49934;SDS011;39898;41.762;26.200;2023-03-05T02:54:57;49.53;;;24.58;;
49934;SDS011;39898;41.762;26.200;2023-03-05T02:57:24;41.90;;;19.38;;
49934;SDS011;39898;41.762;26.200;2023-03-05T02:59:50;34.72;;;18.30;;
49934;SDS011;39898;41.762;26.200;2023-03-05T03:02:17;29.30;;;15.57;;
49934;SDS011;39898;41.762;26.200;2023-03-05T03:04:44;39.78;;;16.55;;
49934;SDS011;39898;41.762;26.200;2023-03-05T03:07:11;32.45;;;15.65;;
49934;SDS011;39898;41.762;26.200;2023-03-05T03:09:38;30.27;;;16.27;;
49934;SDS011;39898;41.762;26.200;2023-03-05T03:12:05;30.05;;;16.45;;
49934;SDS011;39898;41.762;26.200;2023-03-05T03:14:32;32.23;;;17.77;;
49934;SDS011;39898;41.762;26.200;2023-03-05T03:17:03;32.97;;;18.50;;
49934;SDS011;39898;41.762;26.200;2023-03-05T03:19:29;32.22;;;17.55;;
49934;SDS011;39898;41.762;26.200;2023-03-05T03:21:56;71.93;;;33.22;;
49934;SDS011;39898;41.762;26.200;2023-03-05T03:24:22;229.27;;;87.20;;
49934;SDS011;39898;41.762;26.200;2023-03-05T03:26:49;73.30;;;32.65;;
49934;SDS011;39898;41.762;26.200;2023-03-05T03:29:15;34.67;;;19.10;;
49934;SDS011;39898;41.762;26.200;2023-03-05T03:31:43;38.30;;;19.33;;
49934;SDS011;39898;41.762;26.200;2023-03-05T03:36:37;41.40;;;18.85;;
49934;SDS011;39898;41.762;26.200;2023-03-05T03:39:03;48.78;;;20.35;;
49934;SDS011;39898;41.762;26.200;2023-03-05T03:41:31;45.13;;;18.95;;
49934;SDS011;39898;41.762;26.200;2023-03-05T03:43:58;42.60;;;20.73;;
49934;SDS011;39898;41.762;26.200;2023-03-05T03:46:25;44.20;;;19.20;;
49934;SDS011;39898;41.762;26.200;2023-03-05T03:48:52;42.70;;;21.70;;
49934;SDS011;39898;41.762;26.200;2023-03-05T03:51:18;42.10;;;21.75;;
49934;SDS011;39898;41.762;26.200;2023-03-05T03:53:45;41.95;;;21.83;;
49934;SDS011;39898;41.762;26.200;2023-03-05T03:56:12;48.58;;;22.42;;
49934;SDS011;39898;41.762;26.200;2023-03-05T03:58:38;56.20;;;25.33;;
49934;SDS011;39898;41.762;26.200;2023-03-05T04:01:05;58.67;;;27.23;;
49934;SDS011;39898;41.762;26.200;2023-03-05T04:03:31;72.07;;;27.40;;
49934;SDS011;39898;41.762;26.200;2023-03-05T04:05:58;114.78;;;26.67;;
49934;SDS011;39898;41.762;26.200;2023-03-05T04:08:24;107.18;;;27.63;;
49934;SDS011;39898;41.762;26.200;2023-03-05T04:10:51;139.05;;;30.45;;
49934;SDS011;39898;41.762;26.200;2023-03-05T04:13:17;143.98;;;28.58;;
49934;SDS011;39898;41.762;26.200;2023-03-05T04:15:44;93.53;;;26.42;;
49934;SDS011;39898;41.762;26.200;2023-03-05T04:18:11;69.53;;;25.77;;
49934;SDS011;39898;41.762;26.200;2023-03-05T04:20:37;98.07;;;28.88;;
49934;SDS011;39898;41.762;26.200;2023-03-05T04:23:04;80.57;;;26.45;;
49934;SDS011;39898;41.762;26.200;2023-03-05T04:25:30;89.05;;;29.58;;
49934;SDS011;39898;41.762;26.200;2023-03-05T04:27:56;78.70;;;28.45;;
49934;SDS011;39898;41.762;26.200;2023-03-05T04:30:23;74.32;;;26.15;;
49934;SDS011;39898;41.762;26.200;2023-03-05T04:32:49;73.95;;;26.27;;
49934;SDS011;39898;41.762;26.200;2023-03-05T04:35:16;93.82;;;29.17;;
49934;SDS011;39898;41.762;26.200;2023-03-05T04:37:43;108.50;;;27.77;;
49934;SDS011;39898;41.762;26.200;2023-03-05T04:40:09;131.35;;;32.38;;
49934;SDS011;39898;41.762;26.200;2023-03-05T04:42:36;140.10;;;30.30;;
49934;SDS011;39898;41.762;26.200;2023-03-05T04:45:03;100.13;;;27.63;;
49934;SDS011;39898;41.762;26.200;2023-03-05T04:47:30;139.63;;;33.17;;
49934;SDS011;39898;41.762;26.200;2023-03-05T04:49:57;112.05;;;31.38;;
49934;SDS011;39898;41.762;26.200;2023-03-05T04:52:23;142.27;;;32.80;;
49934;SDS011;39898;41.762;26.200;2023-03-05T04:54:50;140.10;;;32.28;;
49934;SDS011;39898;41.762;26.200;2023-03-05T04:57:16;129.55;;;32.38;;
49934;SDS011;39898;41.762;26.200;2023-03-05T04:59:43;157.07;;;33.03;;
49934;SDS011;39898;41.762;26.200;2023-03-05T05:02:10;158.32;;;35.15;;
49934;SDS011;39898;41.762;26.200;2023-03-05T05:04:36;183.15;;;36.33;;
49934;SDS011;39898;41.762;26.200;2023-03-05T05:07:03;150.93;;;38.72;;
49934;SDS011;39898;41.762;26.200;2023-03-05T05:09:30;211.53;;;40.90;;
49934;SDS011;39898;41.762;26.200;2023-03-05T05:11:56;175.93;;;41.15;;
49934;SDS011;39898;41.762;26.200;2023-03-05T05:14:23;166.98;;;38.63;;
49934;SDS011;39898;41.762;26.200;2023-03-05T05:16:49;150.88;;;40.67;;
49934;SDS011;39898;41.762;26.200;2023-03-05T05:19:16;156.32;;;41.17;;
49934;SDS011;39898;41.762;26.200;2023-03-05T05:21:42;128.73;;;39.55;;
49934;SDS011;39898;41.762;26.200;2023-03-05T05:24:09;136.50;;;38.55;;
49934;SDS011;39898;41.762;26.200;2023-03-05T05:26:35;158.35;;;43.58;;
49934;SDS011;39898;41.762;26.200;2023-03-05T05:29:02;184.77;;;46.90;;
49934;SDS011;39898;41.762;26.200;2023-03-05T05:31:28;158.77;;;53.55;;
49934;SDS011;39898;41.762;26.200;2023-03-05T05:33:55;190.10;;;58.80;;
49934;SDS011;39898;41.762;26.200;2023-03-05T05:36:21;218.38;;;59.97;;
49934;SDS011;39898;41.762;26.200;2023-03-05T05:42:20;188.50;;;62.30;;
49934;SDS011;39898;41.762;26.200;2023-03-05T05:44:47;214.40;;;63.08;;
49934;SDS011;39898;41.762;26.200;2023-03-05T05:47:14;210.35;;;69.15;;
49934;SDS011;39898;41.762;26.200;2023-03-05T05:49:41;208.93;;;63.33;;
49934;SDS011;39898;41.762;26.200;2023-03-05T05:52:07;210.80;;;56.58;;
49934;SDS011;39898;41.762;26.200;2023-03-05T05:54:34;266.33;;;57.08;;
49934;SDS011;39898;41.762;26.200;2023-03-05T05:57:00;192.82;;;49.10;;
49934;SDS011;39898;41.762;26.200;2023-03-05T05:59:27;251.93;;;99.15;;
49934;SDS011;39898;41.762;26.200;2023-03-05T06:01:54;198.05;;;83.68;;
49934;SDS011;39898;41.762;26.200;2023-03-05T06:04:21;242.48;;;75.28;;
49934;SDS011;39898;41.762;26.200;2023-03-05T06:06:47;178.70;;;54.30;;
49934;SDS011;39898;41.762;26.200;2023-03-05T06:09:14;180.43;;;65.65;;
49934;SDS011;39898;41.762;26.200;2023-03-05T06:11:40;121.20;;;53.45;;
49934;SDS011;39898;41.762;26.200;2023-03-05T06:14:08;109.80;;;41.10;;
49934;SDS011;39898;41.762;26.200;2023-03-05T06:16:35;229.23;;;54.95;;
49934;SDS011;39898;41.762;26.200;2023-03-05T06:19:01;149.88;;;49.92;;
49934;SDS011;39898;41.762;26.200;2023-03-05T06:21:30;166.55;;;46.35;;
49934;SDS011;39898;41.762;26.200;2023-03-05T06:23:56;135.73;;;42.88;;
49934;SDS011;39898;41.762;26.200;2023-03-05T06:26:26;117.20;;;44.22;;
49934;SDS011;39898;41.762;26.200;2023-03-05T06:28:52;87.65;;;40.90;;
49934;SDS011;39898;41.762;26.200;2023-03-05T06:31:21;115.43;;;46.63;;
49934;SDS011;39898;41.762;26.200;2023-03-05T06:33:48;100.63;;;43.55;;
49934;SDS011;39898;41.762;26.200;2023-03-05T06:36:15;118.20;;;47.65;;
49934;SDS011;39898;41.762;26.200;2023-03-05T06:38:42;106.45;;;39.83;;
49934;SDS011;39898;41.762;26.200;2023-03-05T06:41:09;97.70;;;40.08;;
49934;SDS011;39898;41.762;26.200;2023-03-05T06:43:37;88.38;;;41.42;;
49934;SDS011;39898;41.762;26.200;2023-03-05T06:46:09;103.63;;;42.70;;
49934;SDS011;39898;41.762;26.200;2023-03-05T06:48:36;94.03;;;43.75;;
49934;SDS011;39898;41.762;26.200;2023-03-05T06:51:03;102.38;;;40.40;;
49934;SDS011;39898;41.762;26.200;2023-03-05T06:53:30;108.47;;;42.30;;
49934;SDS011;39898;41.762;26.200;2023-03-05T06:55:59;124.20;;;50.95;;
49934;SDS011;39898;41.762;26.200;2023-03-05T06:58:25;108.78;;;45.78;;
49934;SDS011;39898;41.762;26.200;2023-03-05T07:00:52;100.60;;;45.13;;
49934;SDS011;39898;41.762;26.200;2023-03-05T07:03:19;122.70;;;46.85;;
49934;SDS011;39898;41.762;26.200;2023-03-05T07:05:45;158.63;;;68.15;;
49934;SDS011;39898;41.762;26.200;2023-03-05T07:08:12;139.57;;;51.22;;
49934;SDS011;39898;41.762;26.200;2023-03-05T07:10:39;115.15;;;48.67;;
49934;SDS011;39898;41.762;26.200;2023-03-05T07:13:06;109.78;;;48.78;;
49934;SDS011;39898;41.762;26.200;2023-03-05T07:15:33;99.80;;;42.87;;
49934;SDS011;39898;41.762;26.200;2023-03-05T07:17:59;101.38;;;44.97;;
49934;SDS011;39898;41.762;26.200;2023-03-05T07:20:26;112.95;;;42.47;;
49934;SDS011;39898;41.762;26.200;2023-03-05T07:22:52;96.43;;;44.45;;
49934;SDS011;39898;41.762;26.200;2023-03-05T07:25:19;111.93;;;46.72;;
49934;SDS011;39898;41.762;26.200;2023-03-05T07:27:46;93.15;;;42.78;;
49934;SDS011;39898;41.762;26.200;2023-03-05T07:30:14;109.15;;;44.97;;
49934;SDS011;39898;41.762;26.200;2023-03-05T07:32:40;93.70;;;44.05;;
49934;SDS011;39898;41.762;26.200;2023-03-05T07:35:07;102.22;;;47.42;;
49934;SDS011;39898;41.762;26.200;2023-03-05T07:37:34;105.85;;;45.83;;
49934;SDS011;39898;41.762;26.200;2023-03-05T07:40:00;101.88;;;46.22;;
49934;SDS011;39898;41.762;26.200;2023-03-05T07:42:27;94.88;;;42.50;;
49934;SDS011;39898;41.762;26.200;2023-03-05T07:44:53;96.75;;;45.03;;
49934;SDS011;39898;41.762;26.200;2023-03-05T07:47:20;100.03;;;45.10;;
49934;SDS011;39898;41.762;26.200;2023-03-05T07:52:14;140.38;;;62.60;;
49934;SDS011;39898;41.762;26.200;2023-03-05T07:54:41;117.75;;;55.45;;
49934;SDS011;39898;41.762;26.200;2023-03-05T07:57:09;113.05;;;57.25;;
49934;SDS011;39898;41.762;26.200;2023-03-05T07:59:37;101.63;;;48.63;;
49934;SDS011;39898;41.762;26.200;2023-03-05T08:02:04;124.28;;;57.13;;
49934;SDS011;39898;41.762;26.200;2023-03-05T08:04:31;86.05;;;46.13;;
49934;SDS011;39898;41.762;26.200;2023-03-05T08:06:58;104.97;;;50.15;;
49934;SDS011;39898;41.762;26.200;2023-03-05T08:09:25;98.55;;;48.47;;
49934;SDS011;39898;41.762;26.200;2023-03-05T08:11:52;95.45;;;46.45;;
49934;SDS011;39898;41.762;26.200;2023-03-05T08:14:19;83.75;;;42.55;;
49934;SDS011;39898;41.762;26.200;2023-03-05T08:16:45;91.57;;;45.25;;
49934;SDS011;39898;41.762;26.200;2023-03-05T08:19:13;90.60;;;45.58;;
49934;SDS011;39898;41.762;26.200;2023-03-05T08:21:40;90.55;;;46.63;;
49934;SDS011;39898;41.762;26.200;2023-03-05T08:24:07;106.93;;;54.00;;
49934;SDS011;39898;41.762;26.200;2023-03-05T08:26:34;91.60;;;46.47;;
49934;SDS011;39898;41.762;26.200;2023-03-05T08:29:01;89.40;;;46.55;;
49934;SDS011;39898;41.762;26.200;2023-03-05T08:31:28;88.75;;;45.50;;
49934;SDS011;39898;41.762;26.200;2023-03-05T08:33:56;88.07;;;45.47;;
49934;SDS011;39898;41.762;26.200;2023-03-05T08:36:23;85.55;;;46.38;;
49934;SDS011;39898;41.762;26.200;2023-03-05T08:38:50;90.15;;;47.10;;
49934;SDS011;39898;41.762;26.200;2023-03-05T08:41:17;93.40;;;44.70;;
49934;SDS011;39898;41.762;26.200;2023-03-05T08:43:44;83.50;;;43.85;;
49934;SDS011;39898;41.762;26.200;2023-03-05T08:46:11;90.47;;;46.22;;
49934;SDS011;39898;41.762;26.200;2023-03-05T08:48:38;86.05;;;44.08;;
49934;SDS011;39898;41.762;26.200;2023-03-05T08:51:05;88.93;;;43.28;;
49934;SDS011;39898;41.762;26.200;2023-03-05T08:53:32;77.35;;;40.33;;
49934;SDS011;39898;41.762;26.200;2023-03-05T08:55:59;79.82;;;40.42;;
49934;SDS011;39898;41.762;26.200;2023-03-05T08:58:28;67.75;;;36.63;;
49934;SDS011;39898;41.762;26.200;2023-03-05T09:00:54;73.43;;;36.03;;
49934;SDS011;39898;41.762;26.200;2023-03-05T09:03:21;69.30;;;35.47;;
49934;SDS011;39898;41.762;26.200;2023-03-05T09:05:48;61.38;;;31.58;;
49934;SDS011;39898;41.762;26.200;2023-03-05T09:08:14;55.90;;;30.42;;
49934;SDS011;39898;41.762;26.200;2023-03-05T09:10:41;64.00;;;33.95;;
49934;SDS011;39898;41.762;26.200;2023-03-05T09:13:08;66.82;;;33.65;;
49934;SDS011;39898;41.762;26.200;2023-03-05T09:15:35;65.00;;;34.85;;
49934;SDS011;39898;41.762;26.200;2023-03-05T09:18:02;58.67;;;30.95;;
49934;SDS011;39898;41.762;26.200;2023-03-05T09:20:28;64.63;;;32.67;;
49934;SDS011;39898;41.762;26.200;2023-03-05T09:22:55;62.20;;;31.73;;
49934;SDS011;39898;41.762;26.200;2023-03-05T09:25:21;57.92;;;30.92;;
49934;SDS011;39898;41.762;26.200;2023-03-05T09:27:48;63.20;;;30.27;;
49934;SDS011;39898;41.762;26.200;2023-03-05T09:30:14;95.75;;;41.58;;
49934;SDS011;39898;41.762;26.200;2023-03-05T09:32:41;64.05;;;33.33;;
49934;SDS011;39898;41.762;26.200;2023-03-05T09:35:08;63.70;;;33.80;;
49934;SDS011;39898;41.762;26.200;2023-03-05T09:37:35;68.60;;;35.65;;
49934;SDS011;39898;41.762;26.200;2023-03-05T09:40:01;66.38;;;34.25;;
49934;SDS011;39898;41.762;26.200;2023-03-05T09:50:02;61.55;;;31.35;;
49934;SDS011;39898;41.762;26.200;2023-03-05T09:55:35;53.13;;;30.65;;
49934;SDS011;39898;41.762;26.200;2023-03-05T09:58:08;55.88;;;31.38;;
49934;SDS011;39898;41.762;26.200;2023-03-05T10:00:38;54.08;;;30.83;;
49934;SDS011;39898;41.762;26.200;2023-03-05T10:03:09;61.05;;;30.92;;
49934;SDS011;39898;41.762;26.200;2023-03-05T10:08:10;50.25;;;29.30;;
49934;SDS011;39898;41.762;26.200;2023-03-05T10:13:10;37.60;;;20.52;;
49934;SDS011;39898;41.762;26.200;2023-03-05T10:15:40;60.47;;;30.75;;
49934;SDS011;39898;41.762;26.200;2023-03-05T10:20:50;53.35;;;30.58;;
49934;SDS011;39898;41.762;26.200;2023-03-05T10:23:30;55.15;;;29.58;;
49934;SDS011;39898;41.762;26.200;2023-03-05T10:26:19;48.08;;;28.35;;
49934;SDS011;39898;41.762;26.200;2023-03-05T10:33:56;53.53;;;28.77;;
49934;SDS011;39898;41.762;26.200;2023-03-05T10:38:59;50.25;;;27.58;;
49934;SDS011;39898;41.762;26.200;2023-03-05T10:44:12;50.85;;;24.40;;
49934;SDS011;39898;41.762;26.200;2023-03-05T10:46:43;45.75;;;25.60;;
49934;SDS011;39898;41.762;26.200;2023-03-05T10:49:17;51.55;;;25.58;;
49934;SDS011;39898;41.762;26.200;2023-03-05T10:54:28;65.47;;;33.15;;
49934;SDS011;39898;41.762;26.200;2023-03-05T10:57:29;59.28;;;32.83;;
49934;SDS011;39898;41.762;26.200;2023-03-05T11:02:33;41.25;;;23.67;;
49934;SDS011;39898;41.762;26.200;2023-03-05T11:07:59;45.00;;;24.55;;
49934;SDS011;39898;41.762;26.200;2023-03-05T11:10:25;40.40;;;22.52;;
49934;SDS011;39898;41.762;26.200;2023-03-05T11:12:52;38.78;;;21.80;;
49934;SDS011;39898;41.762;26.200;2023-03-05T11:15:24;34.33;;;19.77;;
49934;SDS011;39898;41.762;26.200;2023-03-05T11:18:05;30.95;;;19.40;;
49934;SDS011;39898;41.762;26.200;2023-03-05T11:20:33;32.47;;;19.35;;
49934;SDS011;39898;41.762;26.200;2023-03-05T11:26:02;37.45;;;21.40;;
49934;SDS011;39898;41.762;26.200;2023-03-05T11:33:34;29.63;;;19.08;;
49934;SDS011;39898;41.762;26.200;2023-03-05T11:36:35;33.40;;;20.05;;
49934;SDS011;39898;41.762;26.200;2023-03-05T11:41:40;34.75;;;18.63;;
49934;SDS011;39898;41.762;26.200;2023-03-05T11:44:14;33.75;;;21.40;;
49934;SDS011;39898;41.762;26.200;2023-03-05T11:46:46;33.65;;;20.95;;
49934;SDS011;39898;41.762;26.200;2023-03-05T11:49:14;28.55;;;18.55;;
49934;SDS011;39898;41.762;26.200;2023-03-05T11:51:47;32.63;;;19.42;;
49934;SDS011;39898;41.762;26.200;2023-03-05T11:54:18;27.58;;;17.63;;
49934;SDS011;39898;41.762;26.200;2023-03-05T11:56:46;30.63;;;17.80;;
49934;SDS011;39898;41.762;26.200;2023-03-05T11:59:25;31.27;;;19.00;;
49934;SDS011;39898;41.762;26.200;2023-03-05T12:01:53;35.03;;;18.77;;
49934;SDS011;39898;41.762;26.200;2023-03-05T12:04:20;40.33;;;21.52;;
49934;SDS011;39898;41.762;26.200;2023-03-05T12:06:51;37.80;;;20.20;;
49934;SDS011;39898;41.762;26.200;2023-03-05T12:11:49;35.25;;;20.05;;
49934;SDS011;39898;41.762;26.200;2023-03-05T12:14:54;33.72;;;19.35;;
49934;SDS011;39898;41.762;26.200;2023-03-05T12:17:16;32.08;;;18.17;;
49934;SDS011;39898;41.762;26.200;2023-03-05T12:22:18;51.40;;;26.73;;
49934;SDS011;39898;41.762;26.200;2023-03-05T12:24:46;38.92;;;20.08;;
49934;SDS011;39898;41.762;26.200;2023-03-05T12:27:14;29.83;;;18.00;;
49934;SDS011;39898;41.762;26.200;2023-03-05T12:29:47;34.63;;;22.58;;
49934;SDS011;39898;41.762;26.200;2023-03-05T12:35:04;29.33;;;18.10;;
49934;SDS011;39898;41.762;26.200;2023-03-05T12:39:58;30.73;;;19.33;;
49934;SDS011;39898;41.762;26.200;2023-03-05T12:48:33;29.45;;;17.88;;
49934;SDS011;39898;41.762;26.200;2023-03-05T12:53:14;31.05;;;17.95;;
49934;SDS011;39898;41.762;26.200;2023-03-05T12:58:21;34.35;;;19.00;;
49934;SDS011;39898;41.762;26.200;2023-03-05T13:01:06;35.35;;;19.75;;
49934;SDS011;39898;41.762;26.200;2023-03-05T13:03:44;31.40;;;20.27;;
49934;SDS011;39898;41.762;26.200;2023-03-05T13:06:22;37.22;;;20.27;;
49934;SDS011;39898;41.762;26.200;2023-03-05T13:08:56;34.10;;;19.25;;
49934;SDS011;39898;41.762;26.200;2023-03-05T13:11:23;35.05;;;20.45;;
49934;SDS011;39898;41.762;26.200;2023-03-05T13:13:50;51.88;;;21.08;;
49934;SDS011;39898;41.762;26.200;2023-03-05T13:16:17;41.95;;;22.05;;
49934;SDS011;39898;41.762;26.200;2023-03-05T13:18:46;47.05;;;24.80;;
49934;SDS011;39898;41.762;26.200;2023-03-05T13:23:49;33.40;;;18.95;;
49934;SDS011;39898;41.762;26.200;2023-03-05T13:26:24;44.65;;;22.92;;
49934;SDS011;39898;41.762;26.200;2023-03-05T13:31:17;38.45;;;21.08;;
49934;SDS011;39898;41.762;26.200;2023-03-05T13:34:07;34.53;;;20.33;;
49934;SDS011;39898;41.762;26.200;2023-03-05T13:36:34;36.53;;;22.15;;
49934;SDS011;39898;41.762;26.200;2023-03-05T13:39:00;39.08;;;22.15;;
49934;SDS011;39898;41.762;26.200;2023-03-05T13:41:29;38.97;;;22.52;;
49934;SDS011;39898;41.762;26.200;2023-03-05T13:43:57;34.38;;;20.65;;
49934;SDS011;39898;41.762;26.200;2023-03-05T13:48:50;38.80;;;21.25;;
49934;SDS011;39898;41.762;26.200;2023-03-05T13:51:16;35.33;;;21.48;;
49934;SDS011;39898;41.762;26.200;2023-03-05T13:53:43;40.15;;;21.20;;
49934;SDS011;39898;41.762;26.200;2023-03-05T13:56:14;37.42;;;21.48;;
49934;SDS011;39898;41.762;26.200;2023-03-05T13:58:51;37.20;;;20.60;;
49934;SDS011;39898;41.762;26.200;2023-03-05T14:01:31;35.13;;;20.48;;
49934;SDS011;39898;41.762;26.200;2023-03-05T14:06:56;41.42;;;23.50;;
49934;SDS011;39898;41.762;26.200;2023-03-05T14:09:27;41.00;;;22.08;;
49934;SDS011;39898;41.762;26.200;2023-03-05T14:12:00;41.88;;;22.80;;
49934;SDS011;39898;41.762;26.200;2023-03-05T14:14:28;40.35;;;21.60;;
49934;SDS011;39898;41.762;26.200;2023-03-05T14:16:56;46.57;;;24.43;;
49934;SDS011;39898;41.762;26.200;2023-03-05T14:19:41;66.53;;;32.85;;
49934;SDS011;39898;41.762;26.200;2023-03-05T14:22:26;45.70;;;22.67;;
49934;SDS011;39898;41.762;26.200;2023-03-05T14:24:54;45.10;;;23.13;;
49934;SDS011;39898;41.762;26.200;2023-03-05T14:27:20;39.00;;;21.92;;
49934;SDS011;39898;41.762;26.200;2023-03-05T14:29:47;44.85;;;23.48;;
49934;SDS011;39898;41.762;26.200;2023-03-05T14:34:47;44.35;;;23.23;;
49934;SDS011;39898;41.762;26.200;2023-03-05T14:37:20;46.80;;;25.63;;
49934;SDS011;39898;41.762;26.200;2023-03-05T14:39:50;66.70;;;36.10;;
49934;SDS011;39898;41.762;26.200;2023-03-05T14:44:46;54.85;;;30.27;;
49934;SDS011;39898;41.762;26.200;2023-03-05T14:47:12;34.55;;;20.05;;
49934;SDS011;39898;41.762;26.200;2023-03-05T14:49:39;43.38;;;21.77;;
49934;SDS011;39898;41.762;26.200;2023-03-05T14:52:05;72.47;;;37.17;;
49934;SDS011;39898;41.762;26.200;2023-03-05T14:54:34;56.60;;;31.10;;
49934;SDS011;39898;41.762;26.200;2023-03-05T14:57:02;46.30;;;27.02;;
49934;SDS011;39898;41.762;26.200;2023-03-05T14:59:29;61.05;;;29.92;;
49934;SDS011;39898;41.762;26.200;2023-03-05T15:01:56;44.05;;;23.95;;
49934;SDS011;39898;41.762;26.200;2023-03-05T15:04:22;44.80;;;23.30;;
49934;SDS011;39898;41.762;26.200;2023-03-05T15:06:49;37.60;;;21.38;;
49934;SDS011;39898;41.762;26.200;2023-03-05T15:09:17;39.33;;;22.02;;
49934;SDS011;39898;41.762;26.200;2023-03-05T15:11:45;46.83;;;26.85;;
49934;SDS011;39898;41.762;26.200;2023-03-05T15:14:11;57.42;;;32.55;;
49934;SDS011;39898;41.762;26.200;2023-03-05T15:16:38;54.30;;;32.38;;
49934;SDS011;39898;41.762;26.200;2023-03-05T15:19:09;49.05;;;27.25;;
49934;SDS011;39898;41.762;26.200;2023-03-05T15:21:36;43.55;;;24.25;;
49934;SDS011;39898;41.762;26.200;2023-03-05T15:24:02;46.75;;;22.73;;
49934;SDS011;39898;41.762;26.200;2023-03-05T15:26:29;48.55;;;28.70;;
49934;SDS011;39898;41.762;26.200;2023-03-05T15:28:55;54.08;;;27.20;;
49934;SDS011;39898;41.762;26.200;2023-03-05T15:31:23;63.90;;;32.75;;
49934;SDS011;39898;41.762;26.200;2023-03-05T15:33:50;61.15;;;30.90;;
49934;SDS011;39898;41.762;26.200;2023-03-05T15:36:16;63.90;;;33.33;;
49934;SDS011;39898;41.762;26.200;2023-03-05T15:38:43;58.03;;;31.23;;
49934;SDS011;39898;41.762;26.200;2023-03-05T15:41:11;67.57;;;33.13;;
49934;SDS011;39898;41.762;26.200;2023-03-05T15:43:38;62.38;;;34.92;;
49934;SDS011;39898;41.762;26.200;2023-03-05T15:46:05;76.32;;;36.33;;